sensor_id;sensor_type;location;lat;lon;timestamp;P1;durP1;ratioP1;P2;durP2;ratioP2
20810;SDS011;10566;52.928;10.522;2022-09-12T00:01:08;5.00;;;4.10;;
20810;SDS011;10566;52.928;10.522;2022-09-12T00:03:35;6.90;;;4.10;;
20810;SDS011;10566;52.928;10.522;2022-09-12T00:06:06;6.40;;;4.03;;
20810;SDS011;10566;52.928;10.522;2022-09-12T00:08:32;7.63;;;4.30;;
20810;SDS011;10566;52.928;10.522;2022-09-12T00:11:02;5.33;;;4.10;;
20810;SDS011;10566;52.928;10.522;2022-09-12T00:13:29;6.07;;;4.00;;
20810;SDS011;10566;52.928;10.522;2022-09-12T00:15:55;5.83;;;4.43;;
20810;SDS011;10566;52.928;10.522;2022-09-12T00:18:21;6.87;;;4.30;;
20810;SDS011;10566;52.928;10.522;2022-09-12T00:20:47;6.23;;;4.03;;
20810;SDS011;10566;52.928;10.522;2022-09-12T00:23:13;8.27;;;4.10;;
20810;SDS011;10566;52.928;10.522;2022-09-12T00:25:40;5.63;;;3.60;;
20810;SDS011;10566;52.928;10.522;2022-09-12T00:28:06;7.27;;;3.73;;
20810;SDS011;10566;52.928;10.522;2022-09-12T00:30:32;5.70;;;3.97;;
20810;SDS011;10566;52.928;10.522;2022-09-12T00:32:58;5.23;;;3.77;;
20810;SDS011;10566;52.928;10.522;2022-09-12T00:35:24;7.53;;;3.90;;
20810;SDS011;10566;52.928;10.522;2022-09-12T00:37:50;8.00;;;4.13;;
20810;SDS011;10566;52.928;10.522;2022-09-12T00:40:16;4.63;;;3.70;;
20810;SDS011;10566;52.928;10.522;2022-09-12T00:42:42;9.00;;;3.63;;
20810;SDS011;10566;52.928;10.522;2022-09-12T00:45:10;6.90;;;3.90;;
20810;SDS011;10566;52.928;10.522;2022-09-12T00:47:44;7.03;;;3.90;;
20810;SDS011;10566;52.928;10.522;2022-09-12T00:50:11;9.10;;;4.07;;
20810;SDS011;10566;52.928;10.522;2022-09-12T00:55:05;5.10;;;3.73;;
20810;SDS011;10566;52.928;10.522;2022-09-12T00:57:36;7.30;;;4.33;;
20810;SDS011;10566;52.928;10.522;2022-09-12T01:00:13;5.77;;;4.83;;
20810;SDS011;10566;52.928;10.522;2022-09-12T01:02:40;8.37;;;4.27;;
20810;SDS011;10566;52.928;10.522;2022-09-12T01:05:07;5.37;;;3.40;;
20810;SDS011;10566;52.928;10.522;2022-09-12T01:07:35;7.70;;;3.53;;
20810;SDS011;10566;52.928;10.522;2022-09-12T01:10:02;8.10;;;3.90;;
20810;SDS011;10566;52.928;10.522;2022-09-12T01:12:28;6.00;;;3.57;;
20810;SDS011;10566;52.928;10.522;2022-09-12T01:14:55;5.00;;;3.57;;
20810;SDS011;10566;52.928;10.522;2022-09-12T01:17:22;4.60;;;3.50;;
20810;SDS011;10566;52.928;10.522;2022-09-12T01:22:48;5.20;;;4.03;;
20810;SDS011;10566;52.928;10.522;2022-09-12T01:38:36;5.50;;;4.13;;
20810;SDS011;10566;52.928;10.522;2022-09-12T01:41:13;5.73;;;3.93;;
20810;SDS011;10566;52.928;10.522;2022-09-12T01:43:48;7.03;;;4.20;;
20810;SDS011;10566;52.928;10.522;2022-09-12T01:46:17;6.07;;;3.90;;
20810;SDS011;10566;52.928;10.522;2022-09-12T01:48:49;5.50;;;3.77;;
20810;SDS011;10566;52.928;10.522;2022-09-12T01:54:04;5.67;;;4.20;;
20810;SDS011;10566;52.928;10.522;2022-09-12T01:56:32;5.20;;;4.10;;
20810;SDS011;10566;52.928;10.522;2022-09-12T01:59:01;4.73;;;3.80;;
20810;SDS011;10566;52.928;10.522;2022-09-12T02:01:32;5.33;;;3.80;;
20810;SDS011;10566;52.928;10.522;2022-09-12T02:04:07;6.13;;;3.53;;
20810;SDS011;10566;52.928;10.522;2022-09-12T02:06:36;5.00;;;3.80;;
20810;SDS011;10566;52.928;10.522;2022-09-12T02:09:09;9.00;;;3.67;;
20810;SDS011;10566;52.928;10.522;2022-09-12T02:11:37;5.90;;;3.83;;
20810;SDS011;10566;52.928;10.522;2022-09-12T02:14:07;7.13;;;3.70;;
20810;SDS011;10566;52.928;10.522;2022-09-12T02:16:45;5.20;;;3.53;;
20810;SDS011;10566;52.928;10.522;2022-09-12T02:19:16;5.20;;;3.50;;
20810;SDS011;10566;52.928;10.522;2022-09-12T02:21:50;4.73;;;3.30;;
20810;SDS011;10566;52.928;10.522;2022-09-12T02:24:17;6.10;;;3.50;;
20810;SDS011;10566;52.928;10.522;2022-09-12T02:26:55;7.70;;;4.23;;
20810;SDS011;10566;52.928;10.522;2022-09-12T02:29:22;4.80;;;3.47;;
20810;SDS011;10566;52.928;10.522;2022-09-12T02:31:58;5.57;;;3.40;;
20810;SDS011;10566;52.928;10.522;2022-09-12T02:39:21;5.47;;;3.50;;
20810;SDS011;10566;52.928;10.522;2022-09-12T02:41:49;5.03;;;3.53;;
20810;SDS011;10566;52.928;10.522;2022-09-12T02:44:15;6.10;;;3.70;;
20810;SDS011;10566;52.928;10.522;2022-09-12T02:46:43;8.37;;;3.90;;
20810;SDS011;10566;52.928;10.522;2022-09-12T02:49:09;7.27;;;3.77;;
20810;SDS011;10566;52.928;10.522;2022-09-12T02:51:36;5.10;;;3.27;;
20810;SDS011;10566;52.928;10.522;2022-09-12T02:54:02;6.20;;;3.33;;
20810;SDS011;10566;52.928;10.522;2022-09-12T02:56:30;6.80;;;3.60;;
20810;SDS011;10566;52.928;10.522;2022-09-12T02:58:58;4.93;;;3.23;;
20810;SDS011;10566;52.928;10.522;2022-09-12T03:01:35;6.70;;;3.27;;
20810;SDS011;10566;52.928;10.522;2022-09-12T03:09:14;6.23;;;3.30;;
20810;SDS011;10566;52.928;10.522;2022-09-12T03:14:16;7.00;;;3.00;;
20810;SDS011;10566;52.928;10.522;2022-09-12T03:16:52;4.80;;;3.43;;
20810;SDS011;10566;52.928;10.522;2022-09-12T03:19:26;4.57;;;3.20;;
20810;SDS011;10566;52.928;10.522;2022-09-12T03:24:33;5.47;;;3.07;;
20810;SDS011;10566;52.928;10.522;2022-09-12T03:29:37;7.73;;;3.33;;
20810;SDS011;10566;52.928;10.522;2022-09-12T03:32:04;5.63;;;3.30;;
20810;SDS011;10566;52.928;10.522;2022-09-12T03:34:31;4.87;;;2.93;;
20810;SDS011;10566;52.928;10.522;2022-09-12T03:36:59;5.67;;;3.37;;
20810;SDS011;10566;52.928;10.522;2022-09-12T03:39:35;5.00;;;3.27;;
20810;SDS011;10566;52.928;10.522;2022-09-12T03:42:01;6.17;;;3.37;;
20810;SDS011;10566;52.928;10.522;2022-09-12T03:44:27;5.60;;;3.10;;
20810;SDS011;10566;52.928;10.522;2022-09-12T03:46:53;4.33;;;3.20;;
20810;SDS011;10566;52.928;10.522;2022-09-12T03:49:19;4.30;;;3.30;;
20810;SDS011;10566;52.928;10.522;2022-09-12T03:51:45;6.33;;;3.47;;
20810;SDS011;10566;52.928;10.522;2022-09-12T03:54:11;6.63;;;3.80;;
20810;SDS011;10566;52.928;10.522;2022-09-12T03:56:37;7.37;;;3.20;;
20810;SDS011;10566;52.928;10.522;2022-09-12T03:59:05;6.77;;;3.60;;
20810;SDS011;10566;52.928;10.522;2022-09-12T04:01:31;7.10;;;3.47;;
20810;SDS011;10566;52.928;10.522;2022-09-12T04:03:57;7.97;;;3.93;;
20810;SDS011;10566;52.928;10.522;2022-09-12T04:06:23;6.63;;;4.30;;
20810;SDS011;10566;52.928;10.522;2022-09-12T04:08:50;6.57;;;3.77;;
20810;SDS011;10566;52.928;10.522;2022-09-12T04:11:17;7.37;;;3.90;;
20810;SDS011;10566;52.928;10.522;2022-09-12T04:13:43;6.43;;;4.20;;
20810;SDS011;10566;52.928;10.522;2022-09-12T04:16:10;6.03;;;4.03;;
20810;SDS011;10566;52.928;10.522;2022-09-12T04:18:36;7.77;;;4.33;;
20810;SDS011;10566;52.928;10.522;2022-09-12T04:21:10;7.57;;;3.60;;
20810;SDS011;10566;52.928;10.522;2022-09-12T04:23:36;8.00;;;3.93;;
20810;SDS011;10566;52.928;10.522;2022-09-12T04:26:03;7.57;;;4.00;;
20810;SDS011;10566;52.928;10.522;2022-09-12T04:28:30;7.40;;;3.53;;
20810;SDS011;10566;52.928;10.522;2022-09-12T04:31:00;6.40;;;3.70;;
20810;SDS011;10566;52.928;10.522;2022-09-12T04:33:26;7.73;;;3.73;;
20810;SDS011;10566;52.928;10.522;2022-09-12T04:35:52;9.67;;;3.80;;
20810;SDS011;10566;52.928;10.522;2022-09-12T04:38:18;6.23;;;3.20;;
20810;SDS011;10566;52.928;10.522;2022-09-12T04:40:44;6.60;;;3.43;;
20810;SDS011;10566;52.928;10.522;2022-09-12T04:43:10;4.60;;;3.30;;
20810;SDS011;10566;52.928;10.522;2022-09-12T04:45:36;6.13;;;3.80;;
20810;SDS011;10566;52.928;10.522;2022-09-12T04:48:03;4.77;;;3.33;;
20810;SDS011;10566;52.928;10.522;2022-09-12T04:50:29;6.10;;;3.30;;
20810;SDS011;10566;52.928;10.522;2022-09-12T04:52:57;6.30;;;3.57;;
20810;SDS011;10566;52.928;10.522;2022-09-12T04:55:24;6.27;;;3.50;;
20810;SDS011;10566;52.928;10.522;2022-09-12T04:57:50;6.60;;;3.70;;
20810;SDS011;10566;52.928;10.522;2022-09-12T05:00:17;5.50;;;3.43;;
20810;SDS011;10566;52.928;10.522;2022-09-12T05:02:43;5.90;;;3.40;;
20810;SDS011;10566;52.928;10.522;2022-09-12T05:05:09;7.00;;;3.53;;
20810;SDS011;10566;52.928;10.522;2022-09-12T05:07:35;8.83;;;3.90;;
20810;SDS011;10566;52.928;10.522;2022-09-12T05:10:02;6.83;;;3.80;;
20810;SDS011;10566;52.928;10.522;2022-09-12T05:12:29;9.30;;;4.13;;
20810;SDS011;10566;52.928;10.522;2022-09-12T05:14:55;5.17;;;3.90;;
20810;SDS011;10566;52.928;10.522;2022-09-12T05:17:21;8.97;;;4.17;;
20810;SDS011;10566;52.928;10.522;2022-09-12T05:19:47;5.27;;;3.50;;
20810;SDS011;10566;52.928;10.522;2022-09-12T05:22:13;8.43;;;3.63;;
20810;SDS011;10566;52.928;10.522;2022-09-12T05:24:39;9.43;;;4.50;;
20810;SDS011;10566;52.928;10.522;2022-09-12T05:27:07;6.93;;;4.03;;
20810;SDS011;10566;52.928;10.522;2022-09-12T05:29:33;7.77;;;4.20;;
20810;SDS011;10566;52.928;10.522;2022-09-12T05:32:00;6.87;;;4.20;;
20810;SDS011;10566;52.928;10.522;2022-09-12T05:34:26;7.70;;;4.50;;
20810;SDS011;10566;52.928;10.522;2022-09-12T05:36:52;7.37;;;4.37;;
20810;SDS011;10566;52.928;10.522;2022-09-12T05:39:18;7.80;;;3.70;;
20810;SDS011;10566;52.928;10.522;2022-09-12T05:41:44;10.47;;;4.43;;
20810;SDS011;10566;52.928;10.522;2022-09-12T05:44:11;7.20;;;3.90;;
20810;SDS011;10566;52.928;10.522;2022-09-12T05:46:38;6.53;;;3.93;;
20810;SDS011;10566;52.928;10.522;2022-09-12T05:49:06;8.17;;;4.10;;
20810;SDS011;10566;52.928;10.522;2022-09-12T05:51:33;7.10;;;4.00;;
20810;SDS011;10566;52.928;10.522;2022-09-12T05:54:00;5.40;;;3.60;;
20810;SDS011;10566;52.928;10.522;2022-09-12T05:56:28;7.23;;;4.50;;
20810;SDS011;10566;52.928;10.522;2022-09-12T05:58:56;12.37;;;5.10;;
20810;SDS011;10566;52.928;10.522;2022-09-12T06:01:22;8.80;;;4.70;;
20810;SDS011;10566;52.928;10.522;2022-09-12T06:03:49;9.23;;;5.27;;
20810;SDS011;10566;52.928;10.522;2022-09-12T06:06:16;7.23;;;5.47;;
20810;SDS011;10566;52.928;10.522;2022-09-12T06:08:46;10.30;;;5.80;;
20810;SDS011;10566;52.928;10.522;2022-09-12T06:11:17;12.50;;;5.00;;
20810;SDS011;10566;52.928;10.522;2022-09-12T06:13:44;8.70;;;5.37;;
20810;SDS011;10566;52.928;10.522;2022-09-12T06:16:20;7.27;;;5.20;;
20810;SDS011;10566;52.928;10.522;2022-09-12T06:18:46;9.83;;;5.30;;
20810;SDS011;10566;52.928;10.522;2022-09-12T06:21:13;12.10;;;5.03;;
20810;SDS011;10566;52.928;10.522;2022-09-12T06:23:39;10.40;;;5.57;;
20810;SDS011;10566;52.928;10.522;2022-09-12T06:26:06;10.20;;;4.87;;
20810;SDS011;10566;52.928;10.522;2022-09-12T06:28:36;10.00;;;5.90;;
20810;SDS011;10566;52.928;10.522;2022-09-12T06:31:03;8.03;;;5.47;;
20810;SDS011;10566;52.928;10.522;2022-09-12T06:33:32;11.37;;;4.97;;
20810;SDS011;10566;52.928;10.522;2022-09-12T06:36:05;8.10;;;6.00;;
20810;SDS011;10566;52.928;10.522;2022-09-12T06:38:32;7.27;;;5.37;;
20810;SDS011;10566;52.928;10.522;2022-09-12T06:40:58;8.90;;;6.33;;
20810;SDS011;10566;52.928;10.522;2022-09-12T06:43:25;9.60;;;6.40;;
20810;SDS011;10566;52.928;10.522;2022-09-12T06:45:51;7.87;;;5.93;;
20810;SDS011;10566;52.928;10.522;2022-09-12T06:48:17;9.57;;;6.70;;
20810;SDS011;10566;52.928;10.522;2022-09-12T06:50:53;8.20;;;6.60;;
20810;SDS011;10566;52.928;10.522;2022-09-12T06:53:20;9.07;;;7.27;;
20810;SDS011;10566;52.928;10.522;2022-09-12T06:55:46;10.73;;;7.50;;
20810;SDS011;10566;52.928;10.522;2022-09-12T06:58:12;11.57;;;8.50;;
20810;SDS011;10566;52.928;10.522;2022-09-12T07:00:38;9.77;;;8.27;;
20810;SDS011;10566;52.928;10.522;2022-09-12T07:03:04;9.65;;;7.22;;
20810;SDS011;10566;52.928;10.522;2022-09-12T07:05:32;9.30;;;7.80;;
20810;SDS011;10566;52.928;10.522;2022-09-12T07:07:58;11.13;;;7.72;;
20810;SDS011;10566;52.928;10.522;2022-09-12T07:10:24;9.35;;;7.95;;
20810;SDS011;10566;52.928;10.522;2022-09-12T07:12:50;11.00;;;7.53;;
20810;SDS011;10566;52.928;10.522;2022-09-12T07:15:16;10.15;;;6.78;;
20810;SDS011;10566;52.928;10.522;2022-09-12T07:17:42;11.02;;;6.80;;
20810;SDS011;10566;52.928;10.522;2022-09-12T07:20:08;10.88;;;8.00;;
20810;SDS011;10566;52.928;10.522;2022-09-12T07:22:34;10.52;;;7.60;;
20810;SDS011;10566;52.928;10.522;2022-09-12T07:25:01;9.23;;;7.10;;
20810;SDS011;10566;52.928;10.522;2022-09-12T07:27:27;10.00;;;7.20;;
20810;SDS011;10566;52.928;10.522;2022-09-12T07:29:53;8.85;;;6.85;;
20810;SDS011;10566;52.928;10.522;2022-09-12T07:32:19;8.50;;;6.43;;
20810;SDS011;10566;52.928;10.522;2022-09-12T07:34:46;8.23;;;6.38;;
20810;SDS011;10566;52.928;10.522;2022-09-12T07:37:13;9.15;;;7.20;;
20810;SDS011;10566;52.928;10.522;2022-09-12T07:39:39;10.30;;;7.50;;
20810;SDS011;10566;52.928;10.522;2022-09-12T07:42:06;10.27;;;7.45;;
20810;SDS011;10566;52.928;10.522;2022-09-12T07:44:32;11.20;;;7.35;;
20810;SDS011;10566;52.928;10.522;2022-09-12T07:46:58;9.13;;;6.60;;
20810;SDS011;10566;52.928;10.522;2022-09-12T07:49:24;9.57;;;7.32;;
20810;SDS011;10566;52.928;10.522;2022-09-12T07:51:50;7.82;;;6.22;;
20810;SDS011;10566;52.928;10.522;2022-09-12T07:54:16;8.75;;;6.80;;
20810;SDS011;10566;52.928;10.522;2022-09-12T07:56:42;8.40;;;6.88;;
20810;SDS011;10566;52.928;10.522;2022-09-12T07:59:08;9.88;;;6.70;;
20810;SDS011;10566;52.928;10.522;2022-09-12T08:01:34;8.90;;;7.00;;
20810;SDS011;10566;52.928;10.522;2022-09-12T08:04:00;7.22;;;6.35;;
20810;SDS011;10566;52.928;10.522;2022-09-12T08:06:27;10.25;;;6.55;;
20810;SDS011;10566;52.928;10.522;2022-09-12T08:08:58;10.30;;;7.63;;
20810;SDS011;10566;52.928;10.522;2022-09-12T08:11:25;8.93;;;7.32;;
20810;SDS011;10566;52.928;10.522;2022-09-12T08:13:54;8.75;;;6.97;;
20810;SDS011;10566;52.928;10.522;2022-09-12T08:16:22;9.10;;;6.80;;
20810;SDS011;10566;52.928;10.522;2022-09-12T08:18:48;9.95;;;7.13;;
20810;SDS011;10566;52.928;10.522;2022-09-12T08:21:16;9.68;;;7.28;;
20810;SDS011;10566;52.928;10.522;2022-09-12T08:23:42;10.68;;;7.90;;
20810;SDS011;10566;52.928;10.522;2022-09-12T08:26:09;10.35;;;7.13;;
20810;SDS011;10566;52.928;10.522;2022-09-12T08:28:36;10.13;;;7.70;;
20810;SDS011;10566;52.928;10.522;2022-09-12T08:31:05;11.93;;;8.43;;
20810;SDS011;10566;52.928;10.522;2022-09-12T08:33:31;10.23;;;7.60;;
20810;SDS011;10566;52.928;10.522;2022-09-12T08:36:02;8.77;;;6.80;;
20810;SDS011;10566;52.928;10.522;2022-09-12T08:38:28;9.60;;;7.28;;
20810;SDS011;10566;52.928;10.522;2022-09-12T08:40:59;10.02;;;6.95;;
20810;SDS011;10566;52.928;10.522;2022-09-12T08:46:10;8.07;;;6.43;;
20810;SDS011;10566;52.928;10.522;2022-09-12T08:48:38;9.05;;;6.38;;
20810;SDS011;10566;52.928;10.522;2022-09-12T08:51:06;9.45;;;6.82;;
20810;SDS011;10566;52.928;10.522;2022-09-12T08:53:35;10.95;;;6.18;;
20810;SDS011;10566;52.928;10.522;2022-09-12T08:56:02;8.60;;;6.18;;
20810;SDS011;10566;52.928;10.522;2022-09-12T08:58:32;8.70;;;6.32;;
20810;SDS011;10566;52.928;10.522;2022-09-12T09:01:10;7.53;;;4.95;;
20810;SDS011;10566;52.928;10.522;2022-09-12T09:06:29;8.00;;;5.90;;
20810;SDS011;10566;52.928;10.522;2022-09-12T09:09:33;7.07;;;5.40;;
20810;SDS011;10566;52.928;10.522;2022-09-12T09:14:40;6.85;;;4.30;;
20810;SDS011;10566;52.928;10.522;2022-09-12T09:17:23;7.38;;;4.63;;
20810;SDS011;10566;52.928;10.522;2022-09-12T09:19:53;5.15;;;3.50;;
20810;SDS011;10566;52.928;10.522;2022-09-12T09:22:25;6.25;;;3.80;;
20810;SDS011;10566;52.928;10.522;2022-09-12T09:24:54;6.72;;;3.60;;
20810;SDS011;10566;52.928;10.522;2022-09-12T09:27:28;5.18;;;3.30;;
20810;SDS011;10566;52.928;10.522;2022-09-12T09:29:56;4.15;;;2.78;;
20810;SDS011;10566;52.928;10.522;2022-09-12T09:32:40;8.10;;;3.90;;
20810;SDS011;10566;52.928;10.522;2022-09-12T09:37:42;4.45;;;3.00;;
20810;SDS011;10566;52.928;10.522;2022-09-12T09:40:15;4.70;;;2.97;;
20810;SDS011;10566;52.928;10.522;2022-09-12T09:45:27;4.30;;;2.60;;
20810;SDS011;10566;52.928;10.522;2022-09-12T09:47:58;8.82;;;3.92;;
20810;SDS011;10566;52.928;10.522;2022-09-12T09:50:26;6.65;;;4.10;;
20810;SDS011;10566;52.928;10.522;2022-09-12T09:52:52;6.18;;;4.45;;
20810;SDS011;10566;52.928;10.522;2022-09-12T09:55:20;6.30;;;3.80;;
20810;SDS011;10566;52.928;10.522;2022-09-12T09:57:47;5.63;;;3.67;;
20810;SDS011;10566;52.928;10.522;2022-09-12T10:00:26;5.43;;;4.10;;
20810;SDS011;10566;52.928;10.522;2022-09-12T10:05:29;5.15;;;3.30;;
20810;SDS011;10566;52.928;10.522;2022-09-12T10:07:57;4.60;;;2.63;;
20810;SDS011;10566;52.928;10.522;2022-09-12T10:10:23;6.00;;;2.40;;
20810;SDS011;10566;52.928;10.522;2022-09-12T10:12:50;3.20;;;2.08;;
20810;SDS011;10566;52.928;10.522;2022-09-12T10:15:23;5.25;;;2.75;;
20810;SDS011;10566;52.928;10.522;2022-09-12T10:17:53;4.00;;;1.90;;
20810;SDS011;10566;52.928;10.522;2022-09-12T10:23:20;2.10;;;1.20;;
20810;SDS011;10566;52.928;10.522;2022-09-12T10:25:52;2.70;;;1.40;;
20810;SDS011;10566;52.928;10.522;2022-09-12T10:28:22;1.85;;;1.00;;
20810;SDS011;10566;52.928;10.522;2022-09-12T10:30:51;2.53;;;1.10;;
20810;SDS011;10566;52.928;10.522;2022-09-12T10:33:18;1.83;;;1.05;;
20810;SDS011;10566;52.928;10.522;2022-09-12T10:35:46;2.35;;;1.15;;
20810;SDS011;10566;52.928;10.522;2022-09-12T10:38:16;2.70;;;1.10;;
20810;SDS011;10566;52.928;10.522;2022-09-12T10:40:45;3.05;;;0.80;;
20810;SDS011;10566;52.928;10.522;2022-09-12T10:43:27;2.33;;;0.88;;
20810;SDS011;10566;52.928;10.522;2022-09-12T10:45:57;2.10;;;0.85;;
20810;SDS011;10566;52.928;10.522;2022-09-12T10:48:28;3.63;;;0.80;;
20810;SDS011;10566;52.928;10.522;2022-09-12T10:50:56;1.63;;;0.90;;
20810;SDS011;10566;52.928;10.522;2022-09-12T10:56:02;1.77;;;0.90;;
20810;SDS011;10566;52.928;10.522;2022-09-12T11:01:04;2.58;;;0.80;;
20810;SDS011;10566;52.928;10.522;2022-09-12T11:03:48;2.17;;;1.08;;
20810;SDS011;10566;52.928;10.522;2022-09-12T11:06:18;2.17;;;1.00;;
20810;SDS011;10566;52.928;10.522;2022-09-12T11:14:22;2.00;;;1.00;;
20810;SDS011;10566;52.928;10.522;2022-09-12T11:19:47;1.95;;;1.00;;
20810;SDS011;10566;52.928;10.522;2022-09-12T11:29:58;3.05;;;1.02;;
20810;SDS011;10566;52.928;10.522;2022-09-12T11:34:54;4.28;;;1.30;;
20810;SDS011;10566;52.928;10.522;2022-09-12T11:39:51;2.13;;;1.02;;
20810;SDS011;10566;52.928;10.522;2022-09-12T11:42:20;4.85;;;1.05;;
20810;SDS011;10566;52.928;10.522;2022-09-12T11:44:51;1.65;;;1.00;;
20810;SDS011;10566;52.928;10.522;2022-09-12T11:47:20;3.03;;;1.00;;
20810;SDS011;10566;52.928;10.522;2022-09-12T11:49:46;2.38;;;1.20;;
20810;SDS011;10566;52.928;10.522;2022-09-12T11:52:18;2.53;;;1.00;;
20810;SDS011;10566;52.928;10.522;2022-09-12T11:54:52;3.05;;;1.20;;
20810;SDS011;10566;52.928;10.522;2022-09-12T12:00:16;3.40;;;0.90;;
20810;SDS011;10566;52.928;10.522;2022-09-12T12:08:00;2.17;;;1.10;;
20810;SDS011;10566;52.928;10.522;2022-09-12T12:10:37;2.20;;;1.10;;
20810;SDS011;10566;52.928;10.522;2022-09-12T12:13:15;2.00;;;1.08;;
20810;SDS011;10566;52.928;10.522;2022-09-12T12:15:47;2.47;;;1.20;;
20810;SDS011;10566;52.928;10.522;2022-09-12T12:18:18;1.70;;;0.95;;
20810;SDS011;10566;52.928;10.522;2022-09-12T12:20:44;2.90;;;1.20;;
20810;SDS011;10566;52.928;10.522;2022-09-12T12:23:26;2.67;;;1.20;;
20810;SDS011;10566;52.928;10.522;2022-09-12T12:25:55;3.80;;;1.20;;
20810;SDS011;10566;52.928;10.522;2022-09-12T12:31:06;3.53;;;1.90;;
20810;SDS011;10566;52.928;10.522;2022-09-12T12:38:25;2.50;;;1.10;;
20810;SDS011;10566;52.928;10.522;2022-09-12T12:40:52;2.10;;;1.20;;
20810;SDS011;10566;52.928;10.522;2022-09-12T12:43:28;2.47;;;1.20;;
20810;SDS011;10566;52.928;10.522;2022-09-12T12:46:06;2.40;;;1.20;;
20810;SDS011;10566;52.928;10.522;2022-09-12T12:48:34;2.42;;;1.20;;
20810;SDS011;10566;52.928;10.522;2022-09-12T12:51:14;2.63;;;1.30;;
20810;SDS011;10566;52.928;10.522;2022-09-12T12:53:41;2.35;;;1.30;;
20810;SDS011;10566;52.928;10.522;2022-09-12T12:56:23;2.47;;;1.35;;
20810;SDS011;10566;52.928;10.522;2022-09-12T12:58:56;4.40;;;1.30;;
20810;SDS011;10566;52.928;10.522;2022-09-12T13:01:23;2.90;;;1.30;;
20810;SDS011;10566;52.928;10.522;2022-09-12T13:03:54;2.88;;;1.52;;
20810;SDS011;10566;52.928;10.522;2022-09-12T13:06:43;2.80;;;1.30;;
20810;SDS011;10566;52.928;10.522;2022-09-12T13:09:18;3.75;;;1.52;;
20810;SDS011;10566;52.928;10.522;2022-09-12T13:11:44;4.28;;;1.40;;
20810;SDS011;10566;52.928;10.522;2022-09-12T13:16:57;4.30;;;1.40;;
20810;SDS011;10566;52.928;10.522;2022-09-12T13:19:26;3.25;;;1.85;;
20810;SDS011;10566;52.928;10.522;2022-09-12T13:21:54;3.53;;;1.70;;
20810;SDS011;10566;52.928;10.522;2022-09-12T13:24:21;4.88;;;1.90;;
20810;SDS011;10566;52.928;10.522;2022-09-12T13:26:47;3.65;;;1.70;;
20810;SDS011;10566;52.928;10.522;2022-09-12T13:29:17;2.75;;;1.63;;
20810;SDS011;10566;52.928;10.522;2022-09-12T13:31:44;4.10;;;1.70;;
20810;SDS011;10566;52.928;10.522;2022-09-12T13:34:14;3.42;;;2.03;;
20810;SDS011;10566;52.928;10.522;2022-09-12T13:44:24;5.22;;;2.53;;
20810;SDS011;10566;52.928;10.522;2022-09-12T13:46:51;4.60;;;3.03;;
20810;SDS011;10566;52.928;10.522;2022-09-12T13:49:36;4.93;;;2.40;;
20810;SDS011;10566;52.928;10.522;2022-09-12T13:52:04;3.60;;;2.53;;
20810;SDS011;10566;52.928;10.522;2022-09-12T13:54:31;4.97;;;3.00;;
20810;SDS011;10566;52.928;10.522;2022-09-12T13:56:58;4.72;;;2.75;;
20810;SDS011;10566;52.928;10.522;2022-09-12T13:59:24;5.70;;;2.58;;
20810;SDS011;10566;52.928;10.522;2022-09-12T14:01:50;3.72;;;2.30;;
20810;SDS011;10566;52.928;10.522;2022-09-12T14:04:21;4.13;;;2.40;;
20810;SDS011;10566;52.928;10.522;2022-09-12T14:09:39;4.15;;;2.30;;
20810;SDS011;10566;52.928;10.522;2022-09-12T14:12:16;5.22;;;2.67;;
20810;SDS011;10566;52.928;10.522;2022-09-12T14:14:45;4.45;;;2.40;;
20810;SDS011;10566;52.928;10.522;2022-09-12T14:19:41;4.80;;;2.60;;
20810;SDS011;10566;52.928;10.522;2022-09-12T14:22:08;4.80;;;2.20;;
20810;SDS011;10566;52.928;10.522;2022-09-12T14:24:36;4.72;;;2.35;;
20810;SDS011;10566;52.928;10.522;2022-09-12T14:27:03;5.65;;;2.40;;
20810;SDS011;10566;52.928;10.522;2022-09-12T14:29:29;5.18;;;2.30;;
20810;SDS011;10566;52.928;10.522;2022-09-12T14:31:59;4.47;;;2.00;;
20810;SDS011;10566;52.928;10.522;2022-09-12T14:34:26;4.95;;;2.28;;
20810;SDS011;10566;52.928;10.522;2022-09-12T14:36:52;5.75;;;2.28;;
20810;SDS011;10566;52.928;10.522;2022-09-12T14:41:49;4.03;;;2.00;;
20810;SDS011;10566;52.928;10.522;2022-09-12T14:44:17;4.05;;;2.00;;
20810;SDS011;10566;52.928;10.522;2022-09-12T14:46:44;5.47;;;2.00;;
20810;SDS011;10566;52.928;10.522;2022-09-12T14:49:13;4.65;;;2.20;;
20810;SDS011;10566;52.928;10.522;2022-09-12T14:51:52;5.70;;;2.00;;
20810;SDS011;10566;52.928;10.522;2022-09-12T15:04:37;3.70;;;1.75;;
20810;SDS011;10566;52.928;10.522;2022-09-12T15:08:12;4.15;;;1.98;;
20810;SDS011;10566;52.928;10.522;2022-09-12T15:10:00;3.15;;;1.67;;
20810;SDS011;10566;52.928;10.522;2022-09-12T15:12:26;4.15;;;1.65;;
20810;SDS011;10566;52.928;10.522;2022-09-12T15:14:54;4.75;;;1.77;;
20810;SDS011;10566;52.928;10.522;2022-09-12T15:17:22;4.30;;;1.80;;
20810;SDS011;10566;52.928;10.522;2022-09-12T15:19:48;4.93;;;1.90;;
20810;SDS011;10566;52.928;10.522;2022-09-12T15:22:14;3.00;;;1.63;;
20810;SDS011;10566;52.928;10.522;2022-09-12T15:24:41;5.30;;;2.15;;
20810;SDS011;10566;52.928;10.522;2022-09-12T15:27:10;4.43;;;1.92;;
20810;SDS011;10566;52.928;10.522;2022-09-12T15:29:37;3.38;;;1.60;;
20810;SDS011;10566;52.928;10.522;2022-09-12T15:32:04;4.95;;;1.80;;
20810;SDS011;10566;52.928;10.522;2022-09-12T15:34:30;3.97;;;1.90;;
20810;SDS011;10566;52.928;10.522;2022-09-12T15:36:56;2.88;;;1.67;;
20810;SDS011;10566;52.928;10.522;2022-09-12T15:39:22;3.63;;;1.55;;
20810;SDS011;10566;52.928;10.522;2022-09-12T15:41:48;4.32;;;1.80;;
20810;SDS011;10566;52.928;10.522;2022-09-12T15:44:14;4.50;;;1.92;;
20810;SDS011;10566;52.928;10.522;2022-09-12T15:46:40;8.45;;;2.13;;
20810;SDS011;10566;52.928;10.522;2022-09-12T15:49:07;5.00;;;2.22;;
20810;SDS011;10566;52.928;10.522;2022-09-12T15:51:33;5.38;;;2.10;;
20810;SDS011;10566;52.928;10.522;2022-09-12T15:54:00;3.50;;;1.88;;
20810;SDS011;10566;52.928;10.522;2022-09-12T15:56:26;6.13;;;2.60;;
20810;SDS011;10566;52.928;10.522;2022-09-12T15:58:52;4.40;;;2.67;;
20810;SDS011;10566;52.928;10.522;2022-09-12T16:01:18;6.25;;;2.83;;
20810;SDS011;10566;52.928;10.522;2022-09-12T16:03:45;5.28;;;2.50;;
20810;SDS011;10566;52.928;10.522;2022-09-12T16:06:11;5.53;;;2.55;;
20810;SDS011;10566;52.928;10.522;2022-09-12T16:08:39;4.40;;;2.40;;
20810;SDS011;10566;52.928;10.522;2022-09-12T16:11:15;5.05;;;2.50;;
20810;SDS011;10566;52.928;10.522;2022-09-12T16:13:43;5.45;;;2.60;;
20810;SDS011;10566;52.928;10.522;2022-09-12T16:16:09;5.22;;;2.60;;
20810;SDS011;10566;52.928;10.522;2022-09-12T16:18:37;4.13;;;2.78;;
20810;SDS011;10566;52.928;10.522;2022-09-12T16:21:03;10.10;;;3.97;;
20810;SDS011;10566;52.928;10.522;2022-09-12T16:23:30;5.28;;;2.72;;
20810;SDS011;10566;52.928;10.522;2022-09-12T16:25:57;6.00;;;3.00;;
20810;SDS011;10566;52.928;10.522;2022-09-12T16:28:23;6.05;;;2.70;;
20810;SDS011;10566;52.928;10.522;2022-09-12T16:30:53;4.63;;;2.75;;
20810;SDS011;10566;52.928;10.522;2022-09-12T16:33:19;4.95;;;2.90;;
20810;SDS011;10566;52.928;10.522;2022-09-12T16:35:45;8.15;;;2.92;;
20810;SDS011;10566;52.928;10.522;2022-09-12T16:38:11;4.75;;;2.90;;
20810;SDS011;10566;52.928;10.522;2022-09-12T16:40:37;4.75;;;2.80;;
20810;SDS011;10566;52.928;10.522;2022-09-12T16:43:04;6.18;;;2.90;;
20810;SDS011;10566;52.928;10.522;2022-09-12T16:45:30;6.20;;;2.75;;
20810;SDS011;10566;52.928;10.522;2022-09-12T16:47:56;4.93;;;2.67;;
20810;SDS011;10566;52.928;10.522;2022-09-12T16:50:22;5.32;;;2.80;;